createdAt,value
2018-05-07T00:00:18.864Z,13.70
2018-05-07T00:02:52.362Z,13.60
2018-05-07T00:05:24.968Z,13.60
2018-05-07T00:07:57.608Z,13.60
2018-05-07T00:10:30.223Z,13.50
2018-05-07T00:13:03.640Z,13.50
2018-05-07T00:15:37.069Z,13.40
2018-05-07T00:18:09.686Z,13.40
2018-05-07T00:20:42.322Z,13.40
2018-05-07T00:23:14.966Z,13.40
2018-05-07T00:25:47.584Z,13.40
2018-05-07T00:28:20.200Z,13.30
2018-05-07T00:30:52.808Z,13.30
2018-05-07T00:33:25.407Z,13.30
2018-05-07T00:35:58.041Z,13.20
2018-05-07T00:38:30.653Z,13.20
2018-05-07T00:41:03.282Z,13.20
2018-05-07T00:43:35.887Z,13.20
2018-05-07T00:46:08.511Z,13.10
2018-05-07T00:48:41.106Z,13.10
2018-05-07T00:51:13.743Z,13.00
2018-05-07T00:53:46.351Z,13.00
2018-05-07T00:56:18.963Z,12.90
2018-05-07T00:58:57.366Z,12.90
2018-05-07T01:01:29.978Z,12.80
2018-05-07T01:04:02.571Z,12.80
2018-05-07T01:06:35.208Z,12.80
2018-05-07T01:09:08.562Z,12.70
2018-05-07T01:11:41.186Z,12.70
2018-05-07T01:14:13.775Z,12.70
2018-05-07T01:16:46.397Z,12.70
2018-05-07T01:19:18.998Z,12.60
2018-05-07T01:21:51.632Z,12.60
2018-05-07T01:24:24.243Z,12.50
2018-05-07T01:26:56.864Z,12.50
2018-05-07T01:29:31.615Z,12.50
2018-05-07T01:32:04.255Z,12.50
2018-05-07T01:34:36.885Z,12.50
2018-05-07T01:37:10.262Z,12.40
2018-05-07T01:39:42.858Z,12.40
2018-05-07T01:42:15.476Z,12.30
2018-05-07T01:44:48.840Z,12.20
2018-05-07T01:47:21.528Z,12.20
2018-05-07T01:49:54.127Z,12.10
2018-05-07T01:52:26.758Z,12.00
2018-05-07T01:54:59.356Z,11.90
2018-05-07T01:57:32.734Z,11.70
2018-05-07T02:00:05.406Z,11.70
2018-05-07T02:02:38.021Z,11.70
2018-05-07T02:05:10.611Z,11.60
2018-05-07T02:07:43.228Z,11.60
2018-05-07T02:10:16.595Z,11.60
2018-05-07T02:12:49.219Z,11.50
2018-05-07T02:15:22.578Z,11.50
2018-05-07T02:17:55.207Z,11.50
2018-05-07T02:20:27.805Z,11.50
2018-05-07T02:23:00.448Z,11.50
2018-05-07T02:25:33.039Z,11.50
2018-05-07T02:28:05.681Z,11.50
2018-05-07T02:30:39.041Z,11.50
2018-05-07T02:33:11.676Z,11.40
2018-05-07T02:35:45.044Z,11.40
2018-05-07T02:38:17.679Z,11.40
2018-05-07T02:40:51.038Z,11.40
2018-05-07T02:43:23.651Z,11.40
2018-05-07T02:45:56.246Z,11.40
2018-05-07T02:48:28.880Z,11.40
2018-05-07T02:51:01.476Z,11.40
2018-05-07T02:53:34.095Z,11.40
2018-05-07T02:56:06.695Z,11.40
2018-05-07T02:58:39.323Z,11.30
2018-05-07T03:01:11.915Z,11.30
2018-05-07T03:03:44.543Z,11.20
2018-05-07T03:06:17.132Z,11.20
2018-05-07T03:08:49.752Z,11.20
2018-05-07T03:11:22.356Z,11.20
2018-05-07T03:13:54.996Z,11.20
2018-05-07T03:16:27.589Z,11.20
2018-05-07T03:19:00.207Z,11.20
2018-05-07T03:21:32.797Z,11.20
2018-05-07T03:24:06.210Z,11.10
2018-05-07T03:26:38.813Z,11.10
2018-05-07T03:29:11.440Z,11.10
2018-05-07T03:31:44.031Z,11.10
2018-05-07T03:34:17.431Z,11.00
2018-05-07T03:36:50.028Z,11.00
2018-05-07T03:39:22.651Z,11.00
2018-05-07T03:41:55.244Z,11.00
2018-05-07T03:44:27.886Z,11.00
2018-05-07T03:47:00.488Z,10.90
2018-05-07T03:49:33.102Z,10.90
2018-05-07T03:52:05.690Z,10.90
2018-05-07T03:54:39.071Z,10.80
2018-05-07T03:57:11.673Z,10.80
2018-05-07T03:59:45.071Z,10.70
2018-05-07T04:02:17.692Z,10.70
2018-05-07T04:04:51.071Z,10.60
2018-05-07T04:07:24.780Z,10.60
2018-05-07T04:09:57.407Z,10.60
2018-05-07T04:12:30.766Z,10.50
2018-05-07T04:15:03.403Z,10.50
2018-05-07T04:17:48.710Z,10.50
2018-05-07T04:20:33.218Z,10.50
2018-05-07T04:26:16.212Z,10.50
2018-05-07T04:28:48.808Z,10.50
2018-05-07T04:31:21.417Z,10.60
2018-05-07T04:33:54.786Z,10.60
2018-05-07T04:36:27.410Z,10.50
2018-05-07T04:39:00.771Z,10.60
2018-05-07T04:41:33.388Z,10.60
2018-05-07T04:44:05.986Z,10.60
2018-05-07T04:46:38.606Z,10.60
2018-05-07T04:49:11.984Z,10.60
2018-05-07T04:51:44.608Z,10.60
2018-05-07T04:54:17.212Z,10.60
2018-05-07T04:56:49.831Z,10.70
2018-05-07T04:59:22.423Z,10.70
2018-05-07T05:01:55.036Z,10.70
2018-05-07T05:04:27.638Z,10.80
2018-05-07T05:07:00.259Z,10.80
2018-05-07T05:09:33.614Z,10.80
2018-05-07T05:12:06.287Z,10.80
2018-05-07T05:14:43.783Z,11.00
2018-05-07T05:17:16.401Z,10.90
2018-05-07T05:19:49.002Z,11.00
2018-05-07T05:22:21.964Z,11.00
2018-05-07T05:24:54.596Z,11.10
2018-05-07T05:27:27.224Z,11.20
2018-05-07T05:29:59.822Z,11.20
2018-05-07T05:32:33.215Z,11.50
2018-05-07T05:35:06.583Z,11.60
2018-05-07T05:37:39.198Z,11.60
2018-05-07T05:40:11.795Z,11.80
2018-05-07T05:42:44.410Z,11.90
2018-05-07T05:45:17.771Z,12.00
2018-05-07T05:47:50.405Z,12.00
2018-05-07T05:50:23.010Z,12.10
2018-05-07T05:52:55.618Z,12.30
2018-05-07T05:55:28.246Z,12.50
2018-05-07T05:58:00.870Z,12.70
2018-05-07T06:00:33.463Z,12.90
2018-05-07T06:03:06.087Z,13.10
2018-05-07T06:05:38.680Z,13.40
2018-05-07T06:08:11.319Z,13.50
2018-05-07T06:10:43.923Z,13.70
2018-05-07T06:13:16.546Z,13.90
2018-05-07T06:15:49.135Z,14.10
2018-05-07T06:18:21.743Z,14.20
2018-05-07T06:20:54.348Z,14.40
2018-05-07T06:23:26.967Z,14.60
2018-05-07T06:25:59.575Z,14.70
2018-05-07T06:28:32.191Z,14.90
2018-05-07T06:31:04.880Z,15.10
2018-05-07T06:33:37.527Z,15.20
2018-05-07T06:36:10.130Z,15.40
2018-05-07T06:38:42.767Z,15.60
2018-05-07T06:41:15.355Z,15.80
2018-05-07T06:43:47.971Z,16.00
2018-05-07T06:46:20.591Z,16.20
2018-05-07T06:48:53.208Z,16.40
2018-05-07T06:51:25.812Z,16.60
2018-05-07T06:53:58.435Z,16.70
2018-05-07T06:56:31.030Z,16.90
2018-05-07T06:59:03.642Z,17.10
2018-05-07T07:01:36.244Z,17.20
2018-05-07T07:04:09.798Z,17.50
2018-05-07T07:06:42.411Z,17.50
2018-05-07T07:09:15.045Z,17.70
2018-05-07T07:11:47.835Z,17.80
2018-05-07T07:14:21.211Z,18.00
2018-05-07T07:16:53.807Z,18.00
2018-05-07T07:19:26.440Z,18.20
2018-05-07T07:21:59.035Z,18.30
2018-05-07T07:24:31.663Z,18.40
2018-05-07T07:27:04.255Z,18.60
2018-05-07T07:29:36.883Z,18.70
2018-05-07T07:32:10.256Z,19.00
2018-05-07T07:34:42.867Z,19.00
2018-05-07T07:37:15.467Z,19.10
2018-05-07T07:39:48.092Z,19.30
2018-05-07T07:42:20.699Z,19.40
2018-05-07T07:44:53.373Z,19.50
2018-05-07T07:47:25.990Z,19.60
2018-05-07T07:49:58.603Z,19.80
2018-05-07T07:52:31.229Z,19.90
2018-05-07T07:55:04.610Z,20.10
2018-05-07T07:57:37.210Z,20.10
2018-05-07T08:00:09.822Z,20.20
2018-05-07T08:02:43.191Z,20.40
2018-05-07T08:05:15.821Z,20.40
2018-05-07T08:07:49.212Z,20.60
2018-05-07T08:10:21.839Z,20.60
2018-05-07T08:12:54.440Z,20.70
2018-05-07T08:15:27.070Z,20.80
2018-05-07T08:17:59.660Z,21.00
2018-05-07T08:20:32.295Z,21.10
2018-05-07T08:23:04.901Z,21.20
2018-05-07T08:25:38.289Z,21.50
2018-05-07T08:28:10.886Z,21.50
2018-05-07T08:30:44.280Z,21.70
2018-05-07T08:33:16.874Z,21.70
2018-05-07T08:35:49.499Z,21.90
2018-05-07T08:38:22.091Z,22.00
2018-05-07T08:40:55.471Z,22.20
2018-05-07T08:43:28.829Z,22.40
2018-05-07T08:46:01.467Z,22.40
2018-05-07T08:48:34.839Z,22.60
2018-05-07T08:51:07.504Z,22.60
2018-05-07T08:53:40.850Z,22.90
2018-05-07T08:56:13.504Z,22.90
2018-05-07T08:58:46.123Z,23.00
2018-05-07T09:01:18.752Z,23.20
2018-05-07T09:03:52.112Z,23.60
2018-05-07T09:06:24.724Z,23.50
2018-05-07T09:08:57.321Z,23.80
2018-05-07T09:11:29.950Z,23.90
2018-05-07T09:14:02.539Z,24.00
2018-05-07T09:16:35.196Z,24.10
2018-05-07T09:19:07.801Z,24.20
2018-05-07T09:21:40.443Z,24.40
2018-05-07T09:24:13.039Z,24.60
2018-05-07T09:26:45.655Z,24.80
2018-05-07T09:29:18.250Z,24.90
2018-05-07T09:31:50.870Z,25.10
2018-05-07T09:34:24.239Z,25.40
2018-05-07T09:36:56.922Z,25.40
2018-05-07T09:39:29.467Z,25.60
2018-05-07T09:42:02.871Z,25.90
2018-05-07T09:44:35.476Z,25.90
2018-05-07T09:47:08.104Z,26.00
2018-05-07T09:49:40.699Z,26.20
2018-05-07T09:52:13.324Z,26.30
2018-05-07T09:54:45.916Z,26.60
2018-05-07T09:57:18.542Z,26.70
2018-05-07T09:59:51.149Z,26.80
2018-05-07T10:02:23.809Z,27.00
2018-05-07T10:04:57.166Z,27.20
2018-05-07T10:07:29.784Z,27.10
2018-05-07T10:10:02.388Z,27.20
2018-05-07T10:12:34.995Z,27.30
2018-05-07T10:15:08.355Z,27.50
2018-05-07T10:17:40.967Z,27.50
2018-05-07T10:20:13.564Z,27.70
2018-05-07T10:22:46.203Z,28.00
2018-05-07T10:25:18.916Z,28.30
2018-05-07T10:27:51.530Z,28.40
2018-05-07T10:30:24.123Z,28.30
2018-05-07T10:32:56.815Z,28.30
2018-05-07T10:35:29.407Z,28.30
2018-05-07T10:38:02.021Z,28.50
2018-05-07T10:40:35.374Z,28.60
2018-05-07T10:43:07.986Z,28.60
2018-05-07T10:45:40.575Z,28.80
2018-05-07T10:48:13.196Z,28.80
2018-05-07T10:50:45.796Z,29.00
2018-05-07T10:53:18.412Z,29.10
2018-05-07T10:55:51.909Z,29.00
2018-05-07T10:58:24.529Z,29.00
2018-05-07T11:00:57.115Z,29.00
2018-05-07T11:03:29.729Z,29.20
2018-05-07T11:06:02.351Z,29.40
2018-05-07T11:08:35.730Z,29.40
2018-05-07T11:11:08.327Z,29.40
2018-05-07T11:13:40.995Z,29.60
2018-05-07T11:16:13.567Z,29.60
2018-05-07T11:18:46.191Z,29.60
2018-05-07T11:21:18.788Z,29.60
2018-05-07T11:23:51.406Z,29.70
2018-05-07T11:26:24.769Z,30.00
2018-05-07T11:28:57.397Z,29.90
2018-05-07T11:31:29.987Z,30.10
2018-05-07T11:34:02.604Z,30.00
2018-05-07T11:36:35.967Z,30.20
2018-05-07T11:39:08.593Z,30.20
2018-05-07T11:41:41.210Z,30.20
2018-05-07T11:44:13.822Z,30.40
2018-05-07T11:46:46.410Z,30.60
2018-05-07T11:49:19.018Z,30.70
2018-05-07T11:51:51.618Z,30.80
2018-05-07T11:54:24.226Z,30.90
2018-05-07T11:56:56.818Z,31.00
2018-05-07T11:59:29.446Z,31.10
2018-05-07T12:02:02.044Z,31.10
2018-05-07T12:04:34.671Z,31.10
2018-05-07T12:07:07.267Z,31.00
2018-05-07T12:09:39.892Z,31.00
2018-05-07T12:12:13.247Z,31.20
2018-05-07T12:14:45.862Z,31.10
2018-05-07T12:17:18.450Z,31.20
2018-05-07T12:19:51.071Z,31.30
2018-05-07T12:22:24.451Z,31.50
2018-05-07T12:24:57.070Z,31.50
2018-05-07T12:27:30.431Z,31.60
2018-05-07T12:30:03.052Z,31.60
2018-05-07T12:32:35.660Z,31.70
2018-05-07T12:35:09.039Z,31.60
2018-05-07T12:37:41.671Z,31.60
2018-05-07T12:40:15.046Z,31.60
2018-05-07T12:42:47.635Z,31.60
2018-05-07T12:45:20.271Z,31.80
2018-05-07T12:47:52.863Z,31.60
2018-05-07T12:50:25.483Z,31.40
2018-05-07T12:52:58.096Z,31.30
2018-05-07T12:55:30.714Z,31.30
2018-05-07T12:58:03.315Z,31.20
2018-05-07T13:00:36.691Z,31.20
2018-05-07T13:03:09.290Z,31.20
2018-05-07T13:05:41.907Z,31.10
2018-05-07T13:08:15.267Z,31.30
2018-05-07T13:10:47.891Z,31.20
2018-05-07T13:13:20.485Z,31.30
2018-05-07T13:15:53.864Z,31.30
2018-05-07T13:18:26.460Z,31.20
2018-05-07T13:20:59.092Z,31.20
2018-05-07T13:23:31.699Z,31.20
2018-05-07T13:26:04.329Z,31.10
2018-05-07T13:28:36.936Z,31.00
2018-05-07T13:31:09.553Z,31.10
2018-05-07T13:33:42.150Z,31.00
2018-05-07T13:36:14.763Z,31.10
2018-05-07T13:38:47.363Z,31.20
2018-05-07T13:41:19.983Z,31.40
2018-05-07T13:43:52.574Z,31.30
2018-05-07T13:46:25.211Z,31.20
2018-05-07T13:48:57.803Z,31.10
2018-05-07T13:51:30.414Z,31.00
2018-05-07T13:54:03.007Z,31.10
2018-05-07T13:56:35.627Z,31.20
2018-05-07T13:59:08.231Z,31.10
2018-05-07T14:01:40.846Z,31.10
2018-05-07T14:04:14.207Z,31.00
2018-05-07T14:06:46.833Z,31.00
2018-05-07T14:09:20.203Z,30.90
2018-05-07T14:11:52.820Z,30.90
2018-05-07T14:14:25.411Z,30.90
2018-05-07T14:16:58.039Z,30.90
2018-05-07T14:19:30.648Z,30.90
2018-05-07T14:22:03.283Z,30.70
2018-05-07T14:24:35.880Z,30.80
2018-05-07T14:27:08.500Z,30.80
2018-05-07T14:29:41.862Z,30.70
2018-05-07T14:32:14.484Z,30.70
2018-05-07T14:34:47.106Z,30.60
2018-05-07T14:37:19.736Z,30.60
2018-05-07T14:39:52.336Z,30.70
2018-05-07T14:42:24.946Z,30.70
2018-05-07T14:44:57.539Z,30.60
2018-05-07T14:47:30.928Z,30.50
2018-05-07T14:50:03.518Z,30.50
2018-05-07T14:52:36.140Z,30.40
2018-05-07T14:55:09.581Z,30.30
2018-05-07T14:57:42.172Z,30.30
2018-05-07T15:00:14.763Z,30.30
2018-05-07T15:02:47.404Z,30.20
2018-05-07T15:05:20.006Z,30.20
2018-05-07T15:07:56.747Z,30.20
2018-05-07T15:10:29.347Z,30.20
2018-05-07T15:13:01.968Z,30.30
2018-05-07T15:15:34.670Z,30.10
2018-05-07T15:18:07.363Z,30.20
2018-05-07T15:20:40.732Z,29.70
2018-05-07T15:23:13.379Z,29.70
2018-05-07T15:25:45.963Z,29.70
2018-05-07T15:28:19.342Z,29.60
2018-05-07T15:30:51.934Z,29.60
2018-05-07T15:33:24.552Z,29.50
2018-05-07T15:35:57.907Z,29.30
2018-05-07T15:38:30.523Z,29.30
2018-05-07T15:41:03.119Z,29.30
2018-05-07T15:43:35.745Z,29.20
2018-05-07T15:46:08.346Z,29.20
2018-05-07T15:48:40.963Z,29.20
2018-05-07T15:51:13.576Z,29.10
2018-05-07T15:53:46.238Z,29.10
2018-05-07T15:56:18.845Z,28.90
2018-05-07T15:58:51.460Z,28.80
2018-05-07T16:01:24.079Z,28.80
2018-05-07T16:03:57.628Z,28.70
2018-05-07T16:06:30.236Z,28.70
2018-05-07T16:09:02.879Z,28.60
2018-05-07T16:11:36.243Z,28.50
2018-05-07T16:14:08.908Z,28.50
2018-05-07T16:16:41.561Z,28.40
2018-05-07T16:19:14.979Z,28.30
2018-05-07T16:21:48.377Z,28.20
2018-05-07T16:24:21.788Z,28.20
2018-05-07T16:26:54.404Z,28.20
2018-05-07T16:29:27.031Z,28.20
2018-05-07T16:31:59.627Z,28.10
2018-05-07T16:34:32.239Z,28.00
2018-05-07T16:37:04.831Z,27.90
2018-05-07T16:39:37.438Z,27.80
2018-05-07T16:42:10.790Z,27.70
2018-05-07T16:44:43.398Z,27.70
2018-05-07T16:47:15.989Z,27.60
2018-05-07T16:49:48.598Z,27.50
2018-05-07T16:52:21.186Z,27.40
2018-05-07T16:54:53.805Z,27.30
2018-05-07T16:57:27.350Z,27.10
2018-05-07T16:59:59.996Z,27.10
2018-05-07T17:02:33.363Z,26.90
2018-05-07T17:05:05.984Z,26.90
2018-05-07T17:07:38.624Z,26.80
2018-05-07T17:10:11.239Z,26.60
2018-05-07T17:12:43.860Z,26.50
2018-05-07T17:15:16.491Z,26.30
2018-05-07T17:17:49.856Z,26.00
2018-05-07T17:20:22.509Z,26.00
2018-05-07T17:22:55.201Z,25.90
2018-05-07T17:25:27.783Z,25.70
2018-05-07T17:28:00.448Z,25.60
2018-05-07T17:30:33.882Z,25.30
2018-05-07T17:33:07.249Z,25.20
2018-05-07T17:35:39.875Z,25.10
2018-05-07T17:38:12.482Z,25.00
2018-05-07T17:40:45.155Z,24.90
2018-05-07T17:43:18.643Z,24.80
2018-05-07T17:46:03.112Z,24.60
2018-05-07T17:48:47.500Z,24.50
2018-05-07T17:51:20.123Z,24.40
2018-05-07T17:53:53.703Z,24.30
2018-05-07T17:56:27.083Z,24.10
2018-05-07T17:58:59.680Z,24.00
2018-05-07T18:01:32.295Z,24.00
2018-05-07T18:04:04.903Z,23.90
2018-05-07T18:06:37.514Z,23.80
2018-05-07T18:09:10.123Z,23.70
2018-05-07T18:11:42.747Z,23.70
2018-05-07T18:14:15.347Z,23.60
2018-05-07T18:16:47.974Z,23.50
2018-05-07T18:19:23.731Z,23.40
2018-05-07T18:21:56.352Z,23.40
2018-05-07T18:24:29.022Z,23.30
2018-05-07T18:27:01.639Z,23.20
2018-05-07T18:29:34.245Z,23.10
2018-05-07T18:32:06.888Z,23.10
2018-05-07T18:34:39.521Z,23.00
2018-05-07T18:37:12.149Z,22.90
2018-05-07T18:39:44.752Z,22.90
2018-05-07T18:42:17.392Z,22.70
2018-05-07T18:44:49.999Z,22.70
2018-05-07T18:47:22.634Z,22.60
2018-05-07T18:49:55.232Z,22.50
2018-05-07T18:52:29.785Z,22.40
2018-05-07T18:55:04.337Z,22.30
2018-05-07T18:57:36.975Z,22.30
2018-05-07T19:00:10.342Z,22.10
2018-05-07T19:02:42.966Z,22.10
2018-05-07T19:05:16.358Z,21.90
2018-05-07T19:07:48.970Z,21.90
2018-05-07T19:10:22.331Z,21.80
2018-05-07T19:12:54.943Z,21.80
2018-05-07T19:15:27.548Z,21.70
2018-05-07T19:18:00.185Z,21.60
2018-05-07T19:20:32.791Z,21.50
2018-05-07T19:23:05.412Z,21.50
2018-05-07T19:25:38.057Z,21.40
2018-05-07T19:28:11.420Z,21.30
2018-05-07T19:30:44.028Z,21.20
2018-05-07T19:33:17.428Z,21.10
2018-05-07T19:35:50.868Z,21.00
2018-05-07T19:38:23.464Z,21.00
2018-05-07T19:40:56.091Z,21.00
2018-05-07T19:43:28.771Z,20.90
2018-05-07T19:46:01.399Z,20.80
2018-05-07T19:48:34.137Z,20.80
2018-05-07T19:51:06.674Z,20.70
2018-05-07T19:53:39.297Z,20.60
2018-05-07T19:56:12.671Z,20.50
2018-05-07T19:58:45.278Z,20.50
2018-05-07T20:01:18.830Z,20.40
2018-05-07T20:03:52.289Z,20.20
2018-05-07T20:06:24.822Z,20.20
2018-05-07T20:08:57.457Z,20.20
2018-05-07T20:11:30.057Z,20.10
2018-05-07T20:14:02.672Z,20.00
2018-05-07T20:16:36.047Z,19.80
2018-05-07T20:19:08.667Z,19.70
2018-05-07T20:21:41.270Z,19.70
2018-05-07T20:24:13.906Z,19.50
2018-05-07T20:26:46.511Z,19.50
2018-05-07T20:29:20.139Z,19.40
2018-05-07T20:31:52.735Z,19.30
2018-05-07T20:34:25.347Z,19.20
2018-05-07T20:36:57.953Z,19.10
2018-05-07T20:39:30.565Z,19.00
2018-05-07T20:42:03.171Z,18.90
2018-05-07T20:44:35.787Z,18.80
2018-05-07T20:47:08.386Z,18.80
2018-05-07T20:49:41.025Z,18.70
2018-05-07T20:52:13.641Z,18.60
2018-05-07T20:54:46.267Z,18.50
2018-05-07T20:57:18.891Z,18.50
2018-05-07T20:59:51.536Z,18.40
2018-05-07T21:02:24.131Z,18.30
2018-05-07T21:04:56.756Z,18.20
2018-05-07T21:07:30.190Z,18.10
2018-05-07T21:10:03.025Z,18.10
2018-05-07T21:12:35.665Z,18.00
2018-05-07T21:15:08.283Z,18.00
2018-05-07T21:17:40.878Z,18.00
2018-05-07T21:20:13.510Z,17.90
2018-05-07T21:22:46.111Z,17.90
2018-05-07T21:25:19.499Z,17.80
2018-05-07T21:27:52.106Z,17.80
2018-05-07T21:30:25.551Z,17.80
2018-05-07T21:32:58.155Z,17.70
2018-05-07T21:35:30.797Z,17.70
2018-05-07T21:38:03.402Z,17.70
2018-05-07T21:40:36.779Z,17.60
2018-05-07T21:43:09.376Z,17.60
2018-05-07T21:45:41.995Z,17.60
2018-05-07T21:48:14.606Z,17.60
2018-05-07T21:50:47.227Z,17.60
2018-05-07T21:53:19.831Z,17.60
2018-05-07T21:55:52.463Z,17.50
2018-05-07T21:58:25.054Z,17.50
2018-05-07T22:00:57.671Z,17.40
2018-05-07T22:03:30.265Z,17.40
2018-05-07T22:06:02.895Z,17.40
2018-05-07T22:08:35.498Z,17.40
2018-05-07T22:11:08.887Z,17.30
2018-05-07T22:13:45.220Z,17.30
2018-05-07T22:16:17.843Z,17.30
2018-05-07T22:18:50.451Z,17.20
2018-05-07T22:21:23.068Z,17.20
2018-05-07T22:23:56.447Z,17.10
2018-05-07T22:26:29.067Z,17.10
2018-05-07T22:29:01.665Z,17.10
2018-05-07T22:31:34.283Z,17.00
2018-05-07T22:34:06.880Z,16.90
2018-05-07T22:36:39.507Z,16.90
2018-05-07T22:39:12.127Z,16.80
2018-05-07T22:41:44.762Z,16.80
2018-05-07T22:44:17.380Z,16.80
2018-05-07T22:46:50.008Z,16.70
2018-05-07T22:49:23.367Z,16.60
2018-05-07T22:51:55.984Z,16.60
2018-05-07T22:54:28.584Z,16.60
2018-05-07T22:57:01.982Z,16.40
2018-05-07T22:59:34.584Z,16.50
2018-05-07T23:02:07.206Z,16.40
2018-05-07T23:04:39.807Z,16.30
2018-05-07T23:07:12.441Z,16.30
2018-05-07T23:09:45.045Z,16.20
2018-05-07T23:12:17.671Z,16.20
2018-05-07T23:14:50.271Z,16.20
2018-05-07T23:17:22.911Z,16.10
2018-05-07T23:19:55.507Z,16.10
2018-05-07T23:22:28.140Z,16.00
2018-05-07T23:25:00.735Z,16.00
2018-05-07T23:27:33.357Z,15.90
2018-05-07T23:30:05.954Z,15.90
2018-05-07T23:32:41.371Z,15.80
2018-05-07T23:35:13.970Z,15.80
2018-05-07T23:37:46.588Z,15.70
2018-05-07T23:40:19.185Z,15.70
2018-05-07T23:42:51.802Z,15.60
2018-05-07T23:45:24.469Z,15.60
2018-05-07T23:47:57.173Z,15.60
2018-05-07T23:50:29.790Z,15.60
2018-05-07T23:53:02.428Z,15.50
2018-05-07T23:55:35.023Z,15.50
2018-05-07T23:58:07.659Z,15.40
